GOT weather

Gothenburg-Landvetter Airport
Gothenburg, Västra Götalands län, Sweden

Public forecast

Using degrees Celsius for public forecast. Weather courtesy of forecast.io.

METAR (pilot weather report)

Retrieved 2019/03/19 07:20 UTC (10 minutes ago):

ESGG 190720Z 33008KT CAVOK 00/M06 Q1019 R03/09//95

TAF (pilot weather forecast)

Retrieved 2019/03/19 06:33 UTC (57 minutes ago):

TAF ESGG 190530Z 1906/2006 33009KT CAVOK BECMG 2004/2006 23010KT 2500 RA BKN006